Time;durP1;ratioP1;P1;durP2;ratioP2;P2;SDS_P1;SDS_P2;PMS_P1;PMS_P2;Temp;Humidity;BMP_temperature;BMP_pressure;BME280_temperature;BME280_humidity;BME280_pressure;Samples;Min_cycle;Max_cycle;Signal;HPM_P1;HPM_P2
2023/03/25 00:01:46;;;;;;;;;;;;;;;;;;5046147;28;4468;-54
2023/03/25 00:04:12;;;;;;;;;;;;;;;;;;5048662;28;4685;-58
2023/03/25 00:06:38;;;;;;;;;;;;;;;;;;5036608;28;4972;-60
2023/03/25 00:09:03;;;;;;;;;;;;;;;;;;5042643;28;4644;-61
2023/03/25 00:11:28;;;;;;;;;;;;;;;;;;5047848;28;4420;-61
2023/03/25 00:13:54;;;;;;;;;;;;;;;;;;5026805;28;4650;-60
2023/03/25 00:16:19;;;;;;;;;;;;;;;;;;5047022;28;1101;-61
2023/03/25 00:18:46;;;;;;;;;;;;;;;;;;5047891;28;5355;-59
2023/03/25 00:21:12;;;;;;;;;;;;;;;;;;5039478;28;5119;-60
2023/03/25 00:23:37;;;;;;;;;;;;;;;;;;5043225;28;4494;-60
2023/03/25 00:26:03;;;;;;;;;;;;;;;;;;5042894;28;4525;-60
2023/03/25 00:28:29;;;;;;;;;;;;;;;;;;5048291;28;1905;-61
2023/03/25 00:30:57;;;;;;;;;;;;;;;;;;5047887;28;4420;-60
2023/03/25 00:33:22;;;;;;;;;;;;;;;;;;5048187;28;4462;-60
2023/03/25 00:35:51;;;;;;;;;;;;;;;;;;5044177;28;4629;-62
2023/03/25 00:38:17;;;;;;;;;;;;;;;;;;5046074;28;4733;-61
2023/03/25 00:40:42;;;;;;;;;;;;;;;;;;5041871;28;1749;-61
2023/03/25 00:43:08;;;;;;;;;;;;;;;;;;5034024;28;4499;-61
2023/03/25 00:45:34;;;;;;;;;;;;;;;;;;5035292;28;4576;-61
2023/03/25 00:47:59;;;;;;;;;;;;;;;;;;5038676;28;5008;-61
2023/03/25 00:50:25;;;;;;;;;;;;;;;;;;5037569;28;4987;-60
2023/03/25 00:52:52;;;;;;;;;;;;;;;;;;5042173;28;5090;-61
2023/03/25 00:55:17;;;;;;;;;;;;;;;;;;5037169;28;1365;-60
2023/03/25 00:57:42;;;;;;;;;;;;;;;;;;5045728;28;4533;-60
2023/03/25 01:00:10;;;;;;;;;;;;;;;;;;5047926;28;4968;-61
2023/03/25 01:02:35;;;;;;;;;;;;;;;;;;5044223;28;4508;-61
2023/03/25 01:05:00;;;;;;;;;;;;;;;;;;5038828;28;4661;-60
2023/03/25 01:07:28;;;;;;;;;;;;;;;;;;5048013;28;1999;-61
2023/03/25 01:09:54;;;;;;;;;;;;;;;;;;5047436;28;5180;-61
2023/03/25 01:12:19;;;;;;;;;;;;;;;;;;5048850;28;4535;-60
2023/03/25 01:14:44;;;;;;;;;;;;;;;;;;5049713;28;5054;-61
2023/03/25 01:17:10;;;;;;;;;;;;;;;;;;5049158;28;4465;-61
2023/03/25 01:19:35;;;;;;;;;;;;;;;;;;5045552;28;1083;-60
2023/03/25 01:22:00;;;;;;;;;;;;;;;;;;5041241;28;4929;-60
2023/03/25 01:24:26;;;;;;;;;;;;;;;;;;5041201;28;5045;-59
2023/03/25 01:26:51;;;;;;;;;;;;;;;;;;5047310;28;4458;-60
2023/03/25 01:29:17;;;;;;;;;;;;;;;;;;5050996;28;4473;-60
2023/03/25 01:31:42;;;;;;;;;;;;;;;;;;5049767;28;1307;-61
2023/03/25 01:34:08;;;;;;;;;;;;;;;;;;5049099;28;4400;-59
2023/03/25 01:36:34;;;;;;;;;;;;;;;;;;5050665;28;4906;-57
2023/03/25 01:39:01;;;;;;;;;;;;;;;;;;5043883;28;5641;-61
2023/03/25 01:41:26;;;;;;;;;;;;;;;;;;5043196;28;5007;-60
2023/03/25 01:44:10;;;;;;;;;;;;;;;;;;5049114;28;5019;-60
2023/03/25 01:46:36;;;;;;;;;;;;;;;;;;5044831;28;3162;-60
2023/03/25 01:49:03;;;;;;;;;;;;;;;;;;5045152;28;4481;-60
2023/03/25 01:51:29;;;;;;;;;;;;;;;;;;5032269;28;4515;-60
2023/03/25 01:53:54;;;;;;;;;;;;;;;;;;5043324;28;4599;-61
2023/03/25 01:56:21;;;;;;;;;;;;;;;;;;5043865;28;4548;-61
2023/03/25 01:58:47;;;;;;;;;;;;;;;;;;5046128;28;2205;-61
2023/03/25 02:01:12;;;;;;;;;;;;;;;;;;5047064;28;4979;-60
2023/03/25 02:03:44;;;;;;;;;;;;;;;;;;5045892;28;5121;-60
2023/03/25 02:06:12;;;;;;;;;;;;;;;;;;5043166;28;4465;-60
2023/03/25 02:08:38;;;;;;;;;;;;;;;;;;5050027;28;4518;-59
2023/03/25 02:11:04;;;;;;;;;;;;;;;;;;5050442;28;4534;-60
2023/03/25 02:13:29;;;;;;;;;;;;;;;;;;5043035;28;1209;-60
2023/03/25 02:16:21;;;;;;;;;;;;;;;;;;5046681;28;4482;-58
2023/03/25 02:18:46;;;;;;;;;;;;;;;;;;5049658;28;4927;-60
2023/03/25 02:21:30;;;;;;;;;;;;;;;;;;5048370;28;4613;-59
2023/03/25 02:24:12;;;;;;;;;;;;;;;;;;5047507;28;4464;-60
2023/03/25 02:26:48;;;;;;;;;;;;;;;;;;5041295;28;4490;-61
2023/03/25 02:29:32;;;;;;;;;;;;;;;;;;5044252;28;4850;-60
2023/03/25 02:32:13;;;;;;;;;;;;;;;;;;5048474;28;4491;-60
2023/03/25 02:34:45;;;;;;;;;;;;;;;;;;5046279;28;1868;-62
2023/03/25 02:37:28;;;;;;;;;;;;;;;;;;5048041;28;5222;-63
2023/03/25 02:39:55;;;;;;;;;;;;;;;;;;5047857;28;4690;-62
2023/03/25 02:42:23;;;;;;;;;;;;;;;;;;5074080;28;4619;-63
2023/03/25 02:44:52;;;;;;;;;;;;;;;;;;5044206;28;5497;-62
2023/03/25 02:47:17;;;;;;;;;;;;;;;;;;5045994;28;5087;-61
2023/03/25 02:49:44;;;;;;;;;;;;;;;;;;5042471;28;3328;-62
2023/03/25 02:52:09;;;;;;;;;;;;;;;;;;5080169;28;4385;-63
2023/03/25 02:54:35;;;;;;;;;;;;;;;;;;5048764;28;4973;-63
2023/03/25 02:57:01;;;;;;;;;;;;;;;;;;5040093;28;4641;-61
2023/03/25 02:59:28;;;;;;;;;;;;;;;;;;5039083;28;4500;-63
2023/03/25 03:01:57;;;;;;;;;;;;;;;;;;5040275;28;5313;-61
2023/03/25 03:04:22;;;;;;;;;;;;;;;;;;5038668;28;4696;-60
2023/03/25 03:06:47;;;;;;;;;;;;;;;;;;5047615;28;4577;-60
2023/03/25 03:09:21;;;;;;;;;;;;;;;;;;5039437;28;4978;-60
2023/03/25 03:11:53;;;;;;;;;;;;;;;;;;5039954;28;4467;-59
2023/03/25 03:14:21;;;;;;;;;;;;;;;;;;5038269;28;4971;-62
2023/03/25 03:17:04;;;;;;;;;;;;;;;;;;5043943;28;3177;-61
2023/03/25 03:19:33;;;;;;;;;;;;;;;;;;5043461;28;4622;-60
2023/03/25 03:22:13;;;;;;;;;;;;;;;;;;5042251;28;4622;-61
2023/03/25 03:24:44;;;;;;;;;;;;;;;;;;5039769;28;5138;-59
2023/03/25 03:27:11;;;;;;;;;;;;;;;;;;5042238;28;5109;-60
2023/03/25 03:29:56;;;;;;;;;;;;;;;;;;5047966;28;4596;-61
2023/03/25 03:32:25;;;;;;;;;;;;;;;;;;5037803;28;4612;-62
2023/03/25 03:35:00;;;;;;;;;;;;;;;;;;5045842;28;4520;-60
2023/03/25 03:37:55;;;;;;;;;;;;;;;;;;5067766;28;3372;-61
2023/03/25 03:40:21;;;;;;;;;;;;;;;;;;5041389;28;4936;-61
2023/03/25 03:42:46;;;;;;;;;;;;;;;;;;5076543;28;4515;-60
2023/03/25 03:45:12;;;;;;;;;;;;;;;;;;5046163;28;4438;-60
2023/03/25 03:47:42;;;;;;;;;;;;;;;;;;5042263;28;4551;-61
2023/03/25 03:50:08;;;;;;;;;;;;;;;;;;5041596;28;4505;-60
2023/03/25 03:52:36;;;;;;;;;;;;;;;;;;5043032;28;1313;-61
2023/03/25 03:55:28;;;;;;;;;;;;;;;;;;5077177;28;4416;-61
2023/03/25 03:57:58;;;;;;;;;;;;;;;;;;5040110;28;4771;-61
2023/03/25 04:00:25;;;;;;;;;;;;;;;;;;5042456;28;4459;-60
2023/03/25 04:02:54;;;;;;;;;;;;;;;;;;5043806;28;4843;-60
2023/03/25 04:05:20;;;;;;;;;;;;;;;;;;5043213;28;4765;-60
2023/03/25 04:07:53;;;;;;;;;;;;;;;;;;5037477;28;2913;-59
2023/03/25 04:10:22;;;;;;;;;;;;;;;;;;5079779;28;4414;-60
2023/03/25 04:12:49;;;;;;;;;;;;;;;;;;5046270;28;5133;-61
2023/03/25 04:15:14;;;;;;;;;;;;;;;;;;5078670;28;4479;-60
2023/03/25 04:17:39;;;;;;;;;;;;;;;;;;5038758;28;4668;-60
2023/03/25 04:20:10;;;;;;;;;;;;;;;;;;5040054;28;5134;-60
2023/03/25 04:22:36;;;;;;;;;;;;;;;;;;5043498;28;3165;-60
2023/03/25 04:25:03;;;;;;;;;;;;;;;;;;5042695;28;5114;-60
2023/03/25 04:27:28;;;;;;;;;;;;;;;;;;5037334;28;5191;-61
2023/03/25 04:29:56;;;;;;;;;;;;;;;;;;5044363;28;4913;-61
2023/03/25 04:32:21;;;;;;;;;;;;;;;;;;5045404;28;4768;-61
2023/03/25 04:34:47;;;;;;;;;;;;;;;;;;5043595;28;2153;-60
2023/03/25 04:37:12;;;;;;;;;;;;;;;;;;5048384;28;4955;-58
2023/03/25 04:39:38;;;;;;;;;;;;;;;;;;5045486;28;5104;-61
2023/03/25 04:42:04;;;;;;;;;;;;;;;;;;5048141;28;4441;-61
2023/03/25 04:44:32;;;;;;;;;;;;;;;;;;5047632;28;5450;-61
2023/03/25 04:46:58;;;;;;;;;;;;;;;;;;5048757;28;4538;-60
2023/03/25 04:49:24;;;;;;;;;;;;;;;;;;5042731;28;1252;-61
2023/03/25 04:51:50;;;;;;;;;;;;;;;;;;5048083;28;4463;-60
2023/03/25 04:54:18;;;;;;;;;;;;;;;;;;5042062;28;4756;-59
2023/03/25 04:56:46;;;;;;;;;;;;;;;;;;5046711;28;4563;-61
2023/03/25 04:59:11;;;;;;;;;;;;;;;;;;5051458;28;4697;-60
2023/03/25 05:01:40;;;;;;;;;;;;;;;;;;5048563;28;1282;-61
2023/03/25 05:04:06;;;;;;;;;;;;;;;;;;5030508;28;4677;-60
2023/03/25 05:06:32;;;;;;;;;;;;;;;;;;5048199;28;4970;-61
2023/03/25 05:08:58;;;;;;;;;;;;;;;;;;5051347;28;4624;-60
2023/03/25 05:11:24;;;;;;;;;;;;;;;;;;5051403;28;5048;-62
2023/03/25 05:13:49;;;;;;;;;;;;;;;;;;5038768;28;4525;-61
2023/03/25 05:16:14;;;;;;;;;;;;;;;;;;5038090;28;3381;-60
2023/03/25 05:18:40;;;;;;;;;;;;;;;;;;5043764;28;4582;-61
2023/03/25 05:21:05;;;;;;;;;;;;;;;;;;5050132;28;4723;-61
2023/03/25 05:23:30;;;;;;;;;;;;;;;;;;5044701;28;5096;-60
2023/03/25 05:25:56;;;;;;;;;;;;;;;;;;5042085;28;4957;-61
2023/03/25 05:28:21;;;;;;;;;;;;;;;;;;5044503;28;2122;-60
2023/03/25 05:30:46;;;;;;;;;;;;;;;;;;5036276;28;4719;-60
2023/03/25 05:33:14;;;;;;;;;;;;;;;;;;5048102;28;5014;-59
2023/03/25 05:35:39;;;;;;;;;;;;;;;;;;5047872;28;5010;-59
2023/03/25 05:38:04;;;;;;;;;;;;;;;;;;5049200;28;5094;-62
2023/03/25 05:40:30;;;;;;;;;;;;;;;;;;5051249;28;1109;-61
2023/03/25 05:42:56;;;;;;;;;;;;;;;;;;5049789;28;4459;-60
2023/03/25 05:45:21;;;;;;;;;;;;;;;;;;5040912;28;4883;-60
2023/03/25 05:47:46;;;;;;;;;;;;;;;;;;5082737;28;5273;-60
2023/03/25 05:50:13;;;;;;;;;;;;;;;;;;5050768;28;4777;-59
2023/03/25 05:52:40;;;;;;;;;;;;;;;;;;5050934;28;1092;-61
2023/03/25 05:55:06;;;;;;;;;;;;;;;;;;5043974;28;4981;-61
2023/03/25 05:57:31;;;;;;;;;;;;;;;;;;5042291;28;5022;-61
2023/03/25 05:59:56;;;;;;;;;;;;;;;;;;5045964;28;4862;-62
2023/03/25 06:02:22;;;;;;;;;;;;;;;;;;5049801;28;4529;-61
2023/03/25 06:04:49;;;;;;;;;;;;;;;;;;5044161;28;4879;-59
2023/03/25 06:07:18;;;;;;;;;;;;;;;;;;5050809;28;1971;-60
2023/03/25 06:09:44;;;;;;;;;;;;;;;;;;5051687;28;4951;-61
2023/03/25 06:12:11;;;;;;;;;;;;;;;;;;5038858;28;4941;-59
2023/03/25 06:14:36;;;;;;;;;;;;;;;;;;5032579;28;4918;-61
2023/03/25 06:17:01;;;;;;;;;;;;;;;;;;5049457;28;5205;-61
2023/03/25 06:19:27;;;;;;;;;;;;;;;;;;5045659;28;3248;-61
2023/03/25 06:21:53;;;;;;;;;;;;;;;;;;5040971;28;4491;-62
2023/03/25 06:24:18;;;;;;;;;;;;;;;;;;5044617;28;4627;-63
2023/03/25 06:26:44;;;;;;;;;;;;;;;;;;5034218;28;5073;-62
2023/03/25 06:29:09;;;;;;;;;;;;;;;;;;5044023;28;4479;-60
2023/03/25 06:31:34;;;;;;;;;;;;;;;;;;5038196;28;3409;-61
2023/03/25 06:34:00;;;;;;;;;;;;;;;;;;5045888;28;4466;-60
2023/03/25 06:36:26;;;;;;;;;;;;;;;;;;5040295;28;5413;-63
2023/03/25 06:38:51;;;;;;;;;;;;;;;;;;5043883;28;4501;-61
2023/03/25 06:41:19;;;;;;;;;;;;;;;;;;5037301;28;4968;-61
2023/03/25 06:43:44;;;;;;;;;;;;;;;;;;5032966;28;3316;-63
2023/03/25 06:46:10;;;;;;;;;;;;;;;;;;5040464;28;4591;-64
2023/03/25 06:48:35;;;;;;;;;;;;;;;;;;5041292;28;4694;-61
2023/03/25 06:51:00;;;;;;;;;;;;;;;;;;5037683;28;4762;-62
2023/03/25 06:53:26;;;;;;;;;;;;;;;;;;5044160;28;4601;-61
2023/03/25 06:55:51;;;;;;;;;;;;;;;;;;5044244;28;5171;-61
2023/03/25 06:58:16;;;;;;;;;;;;;;;;;;5045247;28;1105;-61
2023/03/25 07:00:42;;;;;;;;;;;;;;;;;;5043998;28;4428;-61
2023/03/25 07:03:07;;;;;;;;;;;;;;;;;;5079337;28;4454;-60
2023/03/25 07:05:32;;;;;;;;;;;;;;;;;;5044679;28;5250;-57
2023/03/25 07:07:57;;;;;;;;;;;;;;;;;;5044948;28;4691;-58
2023/03/25 07:10:23;;;;;;;;;;;;;;;;;;5046634;28;1204;-58
2023/03/25 07:12:48;;;;;;;;;;;;;;;;;;5049114;28;4606;-58
2023/03/25 07:15:13;;;;;;;;;;;;;;;;;;5046569;28;4659;-62
2023/03/25 07:17:39;;;;;;;;;;;;;;;;;;5047724;28;4876;-63
2023/03/25 07:20:04;;;;;;;;;;;;;;;;;;5043777;28;4846;-62
2023/03/25 07:22:30;;;;;;;;;;;;;;;;;;5045733;28;1255;-63
2023/03/25 07:24:57;;;;;;;;;;;;;;;;;;5047379;28;5147;-63
2023/03/25 07:27:22;;;;;;;;;;;;;;;;;;5043290;28;4828;-61
2023/03/25 07:29:47;;;;;;;;;;;;;;;;;;5048124;28;5246;-63
2023/03/25 07:32:13;;;;;;;;;;;;;;;;;;5048503;28;4476;-62
2023/03/25 07:34:38;;;;;;;;;;;;;;;;;;5047104;28;1402;-62
2023/03/25 07:37:03;;;;;;;;;;;;;;;;;;5044964;28;4716;-63
2023/03/25 07:39:29;;;;;;;;;;;;;;;;;;5041568;28;4679;-65
2023/03/25 07:41:54;;;;;;;;;;;;;;;;;;5045533;28;4996;-65
2023/03/25 07:44:20;;;;;;;;;;;;;;;;;;5046734;28;4947;-63
2023/03/25 07:46:45;;;;;;;;;;;;;;;;;;5034745;28;3495;-65
2023/03/25 07:49:11;;;;;;;;;;;;;;;;;;5040238;28;4454;-66
2023/03/25 07:51:36;;;;;;;;;;;;;;;;;;5045147;28;4453;-65
2023/03/25 07:54:01;;;;;;;;;;;;;;;;;;5047379;28;4458;-65
2023/03/25 07:56:26;;;;;;;;;;;;;;;;;;5040393;28;4645;-66
2023/03/25 07:58:52;;;;;;;;;;;;;;;;;;5043902;28;4455;-65
2023/03/25 08:01:17;;;;;;;;;;;;;;;;;;5045920;28;1224;-65
2023/03/25 08:03:42;;;;;;;;;;;;;;;;;;5043828;28;4665;-66
2023/03/25 08:06:08;;;;;;;;;;;;;;;;;;5042311;28;5007;-66
2023/03/25 08:08:33;;;;;;;;;;;;;;;;;;5047739;28;5091;-66
2023/03/25 08:10:58;;;;;;;;;;;;;;;;;;5047455;28;4431;-65
2023/03/25 08:13:24;;;;;;;;;;;;;;;;;;5042186;28;1303;-65
2023/03/25 08:15:49;;;;;;;;;;;;;;;;;;5043365;28;4431;-66
2023/03/25 08:18:14;;;;;;;;;;;;;;;;;;5038251;28;5255;-64
2023/03/25 08:20:40;;;;;;;;;;;;;;;;;;5031146;28;4662;-64
2023/03/25 08:23:09;;;;;;;;;;;;;;;;;;5041395;28;4643;-66
2023/03/25 08:25:34;;;;;;;;;;;;;;;;;;5044421;28;1527;-64
2023/03/25 08:28:00;;;;;;;;;;;;;;;;;;5047727;28;4988;-65
2023/03/25 08:30:25;;;;;;;;;;;;;;;;;;5044786;28;4659;-65
2023/03/25 08:32:53;;;;;;;;;;;;;;;;;;5042052;28;4704;-65
2023/03/25 08:35:19;;;;;;;;;;;;;;;;;;5043372;28;4488;-65
2023/03/25 08:37:45;;;;;;;;;;;;;;;;;;5044969;28;1039;-65
2023/03/25 08:40:10;;;;;;;;;;;;;;;;;;5047516;28;4881;-65
2023/03/25 08:42:35;;;;;;;;;;;;;;;;;;5046144;28;4668;-65
2023/03/25 08:45:01;;;;;;;;;;;;;;;;;;5034588;28;4974;-64
2023/03/25 08:47:26;;;;;;;;;;;;;;;;;;5038135;28;4492;-64
2023/03/25 08:49:51;;;;;;;;;;;;;;;;;;5047321;28;4658;-64
2023/03/25 08:52:16;;;;;;;;;;;;;;;;;;5052471;28;3187;-65
2023/03/25 08:54:42;;;;;;;;;;;;;;;;;;5072480;28;4623;-60
2023/03/25 08:57:07;;;;;;;;;;;;;;;;;;5038439;28;4928;-61
2023/03/25 08:59:33;;;;;;;;;;;;;;;;;;5043680;28;4729;-61
2023/03/25 09:01:58;;;;;;;;;;;;;;;;;;5035133;28;4515;-60
2023/03/25 09:04:23;;;;;;;;;;;;;;;;;;5034209;28;4630;-61
2023/03/25 09:06:48;;;;;;;;;;;;;;;;;;5033672;28;4569;-61
2023/03/25 09:09:15;;;;;;;;;;;;;;;;;;5038112;28;5113;-65
2023/03/25 09:11:40;;;;;;;;;;;;;;;;;;5037122;28;4874;-64
2023/03/25 09:14:05;;;;;;;;;;;;;;;;;;5039921;28;4670;-64
2023/03/25 09:16:31;;;;;;;;;;;;;;;;;;5040932;28;3244;-68
2023/03/25 09:18:56;;;;;;;;;;;;;;;;;;5045293;28;4450;-63
2023/03/25 09:21:21;;;;;;;;;;;;;;;;;;5043715;28;4602;-66
2023/03/25 09:23:47;;;;;;;;;;;;;;;;;;5045270;28;4693;-60
2023/03/25 09:26:12;;;;;;;;;;;;;;;;;;5040303;28;4541;-61
2023/03/25 09:28:37;;;;;;;;;;;;;;;;;;5038895;28;1985;-62
2023/03/25 09:31:02;;;;;;;;;;;;;;;;;;5038662;28;4442;-62
2023/03/25 09:33:28;;;;;;;;;;;;;;;;;;5045159;28;4675;-62
2023/03/25 09:35:53;;;;;;;;;;;;;;;;;;5041765;28;4730;-62
2023/03/25 09:38:18;;;;;;;;;;;;;;;;;;5046117;28;4965;-62
2023/03/25 09:40:44;;;;;;;;;;;;;;;;;;5047369;28;1109;-62
2023/03/25 09:43:09;;;;;;;;;;;;;;;;;;5039692;28;4558;-62
2023/03/25 09:45:42;;;;;;;;;;;;;;;;;;5048955;28;4994;-62
2023/03/25 09:48:25;;;;;;;;;;;;;;;;;;5041117;28;5009;-62
2023/03/25 09:50:50;;;;;;;;;;;;;;;;;;5046223;28;4459;-63
2023/03/25 09:53:27;;;;;;;;;;;;;;;;;;5040668;28;4613;-63
2023/03/25 09:55:52;;;;;;;;;;;;;;;;;;5038942;28;5372;-63
2023/03/25 09:58:20;;;;;;;;;;;;;;;;;;5042917;28;1025;-63
2023/03/25 10:00:46;;;;;;;;;;;;;;;;;;5047822;28;5059;-62
2023/03/25 10:03:12;;;;;;;;;;;;;;;;;;5048731;28;4635;-61
2023/03/25 10:05:49;;;;;;;;;;;;;;;;;;5045760;28;4641;-61
2023/03/25 10:08:27;;;;;;;;;;;;;;;;;;5043438;28;4633;-61
2023/03/25 10:11:21;;;;;;;;;;;;;;;;;;5040876;28;4478;-61
2023/03/25 10:13:55;;;;;;;;;;;;;;;;;;5029444;28;1275;-62
2023/03/25 10:16:38;;;;;;;;;;;;;;;;;;5041839;28;4443;-62
2023/03/25 10:19:04;;;;;;;;;;;;;;;;;;5047749;28;4439;-62
2023/03/25 10:21:35;;;;;;;;;;;;;;;;;;5042515;28;4463;-62
2023/03/25 10:24:17;;;;;;;;;;;;;;;;;;5039048;28;4641;-62
2023/03/25 10:26:48;;;;;;;;;;;;;;;;;;5037894;28;4962;-62
2023/03/25 10:29:15;;;;;;;;;;;;;;;;;;5044465;28;5834;-62
2023/03/25 10:31:51;;;;;;;;;;;;;;;;;;5048103;28;1118;-62
2023/03/25 10:34:17;;;;;;;;;;;;;;;;;;5050094;28;5027;-62
2023/03/25 10:36:49;;;;;;;;;;;;;;;;;;5045665;28;4405;-62
2023/03/25 10:39:17;;;;;;;;;;;;;;;;;;5075039;28;4636;-62
2023/03/25 10:41:45;;;;;;;;;;;;;;;;;;5047373;28;4636;-62
2023/03/25 10:44:10;;;;;;;;;;;;;;;;;;5043294;28;4444;-62
2023/03/25 10:46:59;;;;;;;;;;;;;;;;;;5050260;28;1145;-62
2023/03/25 10:49:28;;;;;;;;;;;;;;;;;;5049470;28;4983;-62
2023/03/25 10:51:56;;;;;;;;;;;;;;;;;;5045384;28;4732;-61
2023/03/25 10:54:21;;;;;;;;;;;;;;;;;;5046763;28;4617;-62
2023/03/25 10:56:47;;;;;;;;;;;;;;;;;;5038577;28;5112;-62
2023/03/25 10:59:33;;;;;;;;;;;;;;;;;;5047857;28;4608;-62
2023/03/25 11:01:59;;;;;;;;;;;;;;;;;;5029386;28;4472;-62
2023/03/25 11:04:34;;;;;;;;;;;;;;;;;;5079220;28;4529;-62
2023/03/25 11:07:04;;;;;;;;;;;;;;;;;;5077865;28;5085;-62
2023/03/25 11:09:31;;;;;;;;;;;;;;;;;;5043774;28;4964;-62
2023/03/25 11:11:59;;;;;;;;;;;;;;;;;;5049132;28;4481;-62
2023/03/25 11:14:26;;;;;;;;;;;;;;;;;;5043069;28;5062;-61
2023/03/25 11:16:55;;;;;;;;;;;;;;;;;;5044901;28;4461;-62
2023/03/25 11:20:00;;;;;;;;;;;;;;;;;;5041832;28;1085;-62
2023/03/25 11:22:27;;;;;;;;;;;;;;;;;;5038383;28;5235;-62
2023/03/25 11:24:56;;;;;;;;;;;;;;;;;;5027618;28;4744;-62
2023/03/25 11:27:23;;;;;;;;;;;;;;;;;;5042899;28;4632;-62
2023/03/25 11:29:52;;;;;;;;;;;;;;;;;;5047870;28;5030;-61
2023/03/25 11:32:20;;;;;;;;;;;;;;;;;;5043984;28;5090;-62
2023/03/25 11:34:49;;;;;;;;;;;;;;;;;;5047106;28;1203;-61
2023/03/25 11:37:14;;;;;;;;;;;;;;;;;;5044105;28;4993;-62
2023/03/25 11:39:40;;;;;;;;;;;;;;;;;;5048662;28;4642;-62
2023/03/25 11:42:08;;;;;;;;;;;;;;;;;;5037126;28;4694;-62
2023/03/25 11:44:33;;;;;;;;;;;;;;;;;;5047513;28;4622;-62
2023/03/25 11:47:03;;;;;;;;;;;;;;;;;;5044287;28;5016;-62
2023/03/25 11:49:28;;;;;;;;;;;;;;;;;;5036831;28;1221;-62
2023/03/25 11:52:01;;;;;;;;;;;;;;;;;;5041130;28;4435;-62
2023/03/25 11:54:26;;;;;;;;;;;;;;;;;;5045812;28;4457;-62
2023/03/25 11:56:52;;;;;;;;;;;;;;;;;;5039442;28;4839;-62
2023/03/25 11:59:19;;;;;;;;;;;;;;;;;;5047019;28;4541;-62
2023/03/25 12:01:46;;;;;;;;;;;;;;;;;;5078748;28;2045;-62
2023/03/25 12:04:11;;;;;;;;;;;;;;;;;;5038043;28;4654;-62
2023/03/25 12:06:36;;;;;;;;;;;;;;;;;;5039121;28;4532;-62
2023/03/25 12:09:05;;;;;;;;;;;;;;;;;;5035572;28;4904;-62
2023/03/25 12:11:49;;;;;;;;;;;;;;;;;;5046348;28;4643;-62
2023/03/25 12:14:23;;;;;;;;;;;;;;;;;;5038865;28;4665;-62
2023/03/25 12:16:53;;;;;;;;;;;;;;;;;;5044783;28;4632;-60
2023/03/25 12:19:22;;;;;;;;;;;;;;;;;;5038976;28;1128;-63
2023/03/25 12:21:47;;;;;;;;;;;;;;;;;;5044029;28;4488;-61
2023/03/25 12:24:18;;;;;;;;;;;;;;;;;;5041653;28;5025;-62
2023/03/25 12:26:50;;;;;;;;;;;;;;;;;;5044192;28;5183;-62
2023/03/25 12:29:21;;;;;;;;;;;;;;;;;;5046076;28;4444;-62
2023/03/25 12:31:46;;;;;;;;;;;;;;;;;;5042342;28;1145;-62
2023/03/25 12:34:18;;;;;;;;;;;;;;;;;;5037888;28;4695;-62
2023/03/25 12:36:50;;;;;;;;;;;;;;;;;;5047455;28;4440;-62
2023/03/25 12:39:22;;;;;;;;;;;;;;;;;;5043844;28;5102;-61
2023/03/25 12:41:50;;;;;;;;;;;;;;;;;;5045637;28;4463;-62
2023/03/25 12:44:39;;;;;;;;;;;;;;;;;;5042668;28;4775;-61
2023/03/25 12:47:14;;;;;;;;;;;;;;;;;;5041355;28;4474;-62
2023/03/25 12:49:40;;;;;;;;;;;;;;;;;;5044528;28;1195;-62
2023/03/25 12:52:20;;;;;;;;;;;;;;;;;;5047123;28;4998;-62
2023/03/25 12:54:57;;;;;;;;;;;;;;;;;;5044389;28;4503;-62
2023/03/25 12:57:43;;;;;;;;;;;;;;;;;;5038646;28;4946;-62
2023/03/25 13:00:09;;;;;;;;;;;;;;;;;;5046518;28;4617;-62
2023/03/25 13:02:53;;;;;;;;;;;;;;;;;;5041760;28;5040;-62
2023/03/25 13:05:18;;;;;;;;;;;;;;;;;;5039438;28;5048;-62
2023/03/25 13:07:46;;;;;;;;;;;;;;;;;;5049170;28;1918;-62
2023/03/25 13:10:18;;;;;;;;;;;;;;;;;;5049668;28;4864;-63
2023/03/25 13:12:50;;;;;;;;;;;;;;;;;;5044780;28;5319;-62
2023/03/25 13:15:23;;;;;;;;;;;;;;;;;;5040417;28;5199;-62
2023/03/25 13:18:06;;;;;;;;;;;;;;;;;;5048851;28;4948;-62
2023/03/25 13:20:39;;;;;;;;;;;;;;;;;;5049098;28;5006;-62
2023/03/25 13:23:05;;;;;;;;;;;;;;;;;;5043585;28;4936;-62
2023/03/25 13:25:32;;;;;;;;;;;;;;;;;;5045700;28;1730;-62
2023/03/25 13:28:00;;;;;;;;;;;;;;;;;;5039041;28;4480;-62
2023/03/25 13:30:38;;;;;;;;;;;;;;;;;;5049439;28;4949;-62
2023/03/25 13:33:09;;;;;;;;;;;;;;;;;;5070871;28;4775;-63
2023/03/25 13:35:37;;;;;;;;;;;;;;;;;;5035306;28;4965;-63
2023/03/25 13:38:03;;;;;;;;;;;;;;;;;;5042593;28;5132;-63
2023/03/25 13:40:41;;;;;;;;;;;;;;;;;;5030493;28;3181;-63
2023/03/25 13:43:12;;;;;;;;;;;;;;;;;;5038126;28;5016;-63
2023/03/25 13:45:43;;;;;;;;;;;;;;;;;;5034293;28;5322;-63
2023/03/25 13:48:19;;;;;;;;;;;;;;;;;;5043194;28;4433;-63
2023/03/25 13:50:45;;;;;;;;;;;;;;;;;;5049773;28;4881;-61
2023/03/25 13:53:17;;;;;;;;;;;;;;;;;;5044071;28;4561;-63
2023/03/25 13:56:02;;;;;;;;;;;;;;;;;;5075646;28;4691;-62
2023/03/25 13:58:34;;;;;;;;;;;;;;;;;;5039691;28;4936;-61
2023/03/25 14:01:00;;;;;;;;;;;;;;;;;;5049742;28;5473;-63
2023/03/25 14:03:45;;;;;;;;;;;;;;;;;;5050446;28;4618;-60
2023/03/25 14:06:19;;;;;;;;;;;;;;;;;;5059290;28;5072;-63
2023/03/25 14:08:51;;;;;;;;;;;;;;;;;;5045142;28;4544;-65
2023/03/25 14:11:22;;;;;;;;;;;;;;;;;;5037351;28;4592;-63
2023/03/25 14:13:54;;;;;;;;;;;;;;;;;;5035999;28;3763;-63
2023/03/25 14:16:31;;;;;;;;;;;;;;;;;;5049130;28;5026;-63
2023/03/25 14:18:58;;;;;;;;;;;;;;;;;;5037558;28;5034;-63
2023/03/25 14:21:31;;;;;;;;;;;;;;;;;;5035050;28;4420;-63
2023/03/25 14:24:03;;;;;;;;;;;;;;;;;;5045432;28;4545;-61
2023/03/25 14:26:28;;;;;;;;;;;;;;;;;;5038983;28;4607;-62
2023/03/25 14:28:54;;;;;;;;;;;;;;;;;;5042008;28;5096;-62
2023/03/25 14:31:22;;;;;;;;;;;;;;;;;;5042624;28;3229;-62
2023/03/25 14:34:00;;;;;;;;;;;;;;;;;;5040523;28;4763;-62
2023/03/25 14:36:48;;;;;;;;;;;;;;;;;;5047702;28;5034;-62
2023/03/25 14:39:23;;;;;;;;;;;;;;;;;;5038308;28;4575;-62
2023/03/25 14:42:06;;;;;;;;;;;;;;;;;;5043269;28;4639;-62
2023/03/25 14:44:37;;;;;;;;;;;;;;;;;;5037233;28;4934;-62
2023/03/25 14:47:14;;;;;;;;;;;;;;;;;;5080870;28;4893;-62
2023/03/25 14:49:59;;;;;;;;;;;;;;;;;;5049626;28;2031;-62
2023/03/25 14:52:31;;;;;;;;;;;;;;;;;;5038437;28;4985;-61
2023/03/25 14:54:56;;;;;;;;;;;;;;;;;;5057214;28;4647;-62
2023/03/25 14:57:22;;;;;;;;;;;;;;;;;;5038781;28;4569;-61
2023/03/25 14:59:48;;;;;;;;;;;;;;;;;;5041425;28;4863;-62
2023/03/25 15:02:14;;;;;;;;;;;;;;;;;;5040392;28;4517;-62
2023/03/25 15:04:40;;;;;;;;;;;;;;;;;;5040564;28;4653;-61
2023/03/25 15:07:08;;;;;;;;;;;;;;;;;;5079507;28;4470;-62
2023/03/25 15:09:39;;;;;;;;;;;;;;;;;;5032965;28;4518;-61
2023/03/25 15:12:04;;;;;;;;;;;;;;;;;;5043055;28;5253;-62
2023/03/25 15:14:34;;;;;;;;;;;;;;;;;;5043925;28;4462;-62
2023/03/25 15:17:00;;;;;;;;;;;;;;;;;;5039381;28;5170;-61
2023/03/25 15:19:26;;;;;;;;;;;;;;;;;;5067785;28;3114;-62
2023/03/25 15:21:59;;;;;;;;;;;;;;;;;;5040901;28;4867;-62
2023/03/25 15:24:31;;;;;;;;;;;;;;;;;;5044916;28;4602;-62
2023/03/25 15:26:57;;;;;;;;;;;;;;;;;;5046859;28;4746;-62
2023/03/25 15:29:30;;;;;;;;;;;;;;;;;;5038198;28;4628;-62
2023/03/25 15:32:04;;;;;;;;;;;;;;;;;;5045489;28;4447;-62
2023/03/25 15:34:29;;;;;;;;;;;;;;;;;;5048483;28;1219;-61
2023/03/25 15:37:14;;;;;;;;;;;;;;;;;;5040828;28;5223;-62
2023/03/25 15:39:43;;;;;;;;;;;;;;;;;;5042853;28;4807;-62
2023/03/25 15:42:12;;;;;;;;;;;;;;;;;;5046137;28;5378;-61
2023/03/25 15:44:46;;;;;;;;;;;;;;;;;;5039137;28;4639;-62
2023/03/25 15:47:20;;;;;;;;;;;;;;;;;;5034258;28;5228;-62
2023/03/25 15:49:55;;;;;;;;;;;;;;;;;;5036026;28;3435;-61
2023/03/25 15:52:39;;;;;;;;;;;;;;;;;;5042020;28;5836;-61
2023/03/25 15:55:14;;;;;;;;;;;;;;;;;;5045894;28;4643;-61
2023/03/25 15:57:40;;;;;;;;;;;;;;;;;;5042386;28;4979;-61
2023/03/25 16:00:12;;;;;;;;;;;;;;;;;;5047967;28;4652;-61
2023/03/25 16:02:56;;;;;;;;;;;;;;;;;;5047481;28;4828;-62
2023/03/25 16:05:21;;;;;;;;;;;;;;;;;;5043689;28;4904;-64
2023/03/25 16:07:46;;;;;;;;;;;;;;;;;;5039219;28;3202;-62
2023/03/25 16:10:15;;;;;;;;;;;;;;;;;;5042934;28;4581;-62
2023/03/25 16:12:41;;;;;;;;;;;;;;;;;;5035228;28;5143;-63
2023/03/25 16:15:07;;;;;;;;;;;;;;;;;;5032696;28;4852;-62
2023/03/25 16:17:32;;;;;;;;;;;;;;;;;;5042278;28;4562;-61
2023/03/25 16:19:57;;;;;;;;;;;;;;;;;;5038170;28;5037;-62
2023/03/25 16:22:32;;;;;;;;;;;;;;;;;;5042100;28;1261;-61
2023/03/25 16:24:58;;;;;;;;;;;;;;;;;;5044498;28;4474;-61
2023/03/25 16:27:25;;;;;;;;;;;;;;;;;;5044443;28;4521;-62
2023/03/25 16:29:52;;;;;;;;;;;;;;;;;;5040188;28;4653;-61
2023/03/25 16:32:38;;;;;;;;;;;;;;;;;;5037600;28;4662;-61
2023/03/25 16:35:04;;;;;;;;;;;;;;;;;;5038959;28;5113;-61
2023/03/25 16:37:31;;;;;;;;;;;;;;;;;;5043255;28;1223;-61
2023/03/25 16:39:56;;;;;;;;;;;;;;;;;;5045424;28;5031;-61
2023/03/25 16:42:26;;;;;;;;;;;;;;;;;;5040394;28;4468;-61
2023/03/25 16:44:51;;;;;;;;;;;;;;;;;;5047294;28;4696;-60
2023/03/25 16:47:16;;;;;;;;;;;;;;;;;;5037905;28;4470;-60
2023/03/25 16:49:44;;;;;;;;;;;;;;;;;;5047493;28;1221;-61
2023/03/25 16:52:13;;;;;;;;;;;;;;;;;;5042351;28;4403;-61
2023/03/25 16:54:50;;;;;;;;;;;;;;;;;;5045621;28;4505;-61
2023/03/25 16:57:20;;;;;;;;;;;;;;;;;;5034659;28;4646;-61
2023/03/25 16:59:46;;;;;;;;;;;;;;;;;;5048693;28;4922;-62
2023/03/25 17:02:31;;;;;;;;;;;;;;;;;;5044402;28;4954;-61
2023/03/25 17:05:31;;;;;;;;;;;;;;;;;;5049624;28;4816;-61
2023/03/25 17:08:02;;;;;;;;;;;;;;;;;;5048038;28;4646;-61
2023/03/25 17:10:29;;;;;;;;;;;;;;;;;;5043595;28;1215;-61
2023/03/25 17:12:58;;;;;;;;;;;;;;;;;;5045744;28;4687;-61
2023/03/25 17:15:24;;;;;;;;;;;;;;;;;;5039089;28;5064;-62